sensor_id;sensor_type;location;lat;lon;timestamp;P1;durP1;ratioP1;P2;durP2;ratioP2
76610;SDS011;65503;48.534;9.062;2023-03-20T00:02:18;5.03;;;1.92;;
76610;SDS011;65503;48.534;9.062;2023-03-20T00:04:46;6.13;;;2.25;;
76610;SDS011;65503;48.534;9.062;2023-03-20T00:07:13;7.15;;;1.95;;
76610;SDS011;65503;48.534;9.062;2023-03-20T00:09:40;3.55;;;1.67;;
76610;SDS011;65503;48.534;9.062;2023-03-20T00:12:09;3.03;;;1.77;;
76610;SDS011;65503;48.534;9.062;2023-03-20T00:14:40;3.92;;;1.80;;
76610;SDS011;65503;48.534;9.062;2023-03-20T00:17:10;3.25;;;1.75;;
76610;SDS011;65503;48.534;9.062;2023-03-20T00:19:43;3.75;;;1.77;;
76610;SDS011;65503;48.534;9.062;2023-03-20T00:22:10;4.00;;;1.70;;
76610;SDS011;65503;48.534;9.062;2023-03-20T00:24:37;3.50;;;1.73;;
76610;SDS011;65503;48.534;9.062;2023-03-20T00:27:04;4.05;;;1.52;;
76610;SDS011;65503;48.534;9.062;2023-03-20T00:29:31;2.70;;;1.50;;
76610;SDS011;65503;48.534;9.062;2023-03-20T00:31:59;3.95;;;1.80;;
76610;SDS011;65503;48.534;9.062;2023-03-20T00:34:26;3.20;;;1.92;;
76610;SDS011;65503;48.534;9.062;2023-03-20T00:36:54;3.10;;;1.70;;
76610;SDS011;65503;48.534;9.062;2023-03-20T00:39:22;4.43;;;1.77;;
76610;SDS011;65503;48.534;9.062;2023-03-20T00:41:56;3.47;;;1.90;;
76610;SDS011;65503;48.534;9.062;2023-03-20T00:44:31;4.93;;;1.77;;
76610;SDS011;65503;48.534;9.062;2023-03-20T00:49:32;4.00;;;1.92;;
76610;SDS011;65503;48.534;9.062;2023-03-20T00:52:00;2.95;;;1.50;;
76610;SDS011;65503;48.534;9.062;2023-03-20T00:54:28;2.70;;;1.40;;
76610;SDS011;65503;48.534;9.062;2023-03-20T00:56:59;4.25;;;1.55;;
76610;SDS011;65503;48.534;9.062;2023-03-20T00:59:29;3.90;;;1.60;;
76610;SDS011;65503;48.534;9.062;2023-03-20T01:02:00;3.63;;;1.85;;
76610;SDS011;65503;48.534;9.062;2023-03-20T01:04:35;3.83;;;1.80;;
76610;SDS011;65503;48.534;9.062;2023-03-20T01:07:05;4.50;;;1.70;;
76610;SDS011;65503;48.534;9.062;2023-03-20T01:09:33;3.65;;;1.65;;
76610;SDS011;65503;48.534;9.062;2023-03-20T01:11:59;3.78;;;1.60;;
76610;SDS011;65503;48.534;9.062;2023-03-20T01:14:27;3.35;;;1.75;;
76610;SDS011;65503;48.534;9.062;2023-03-20T01:16:54;3.58;;;1.52;;
76610;SDS011;65503;48.534;9.062;2023-03-20T01:19:21;3.75;;;1.83;;
76610;SDS011;65503;48.534;9.062;2023-03-20T01:21:47;2.47;;;1.50;;
76610;SDS011;65503;48.534;9.062;2023-03-20T01:24:14;2.25;;;1.38;;
76610;SDS011;65503;48.534;9.062;2023-03-20T01:26:41;5.32;;;1.75;;
76610;SDS011;65503;48.534;9.062;2023-03-20T01:29:19;5.30;;;2.22;;
76610;SDS011;65503;48.534;9.062;2023-03-20T01:31:48;4.28;;;2.00;;
76610;SDS011;65503;48.534;9.062;2023-03-20T01:34:15;3.97;;;1.80;;
76610;SDS011;65503;48.534;9.062;2023-03-20T01:36:43;4.45;;;1.88;;
76610;SDS011;65503;48.534;9.062;2023-03-20T01:39:15;3.28;;;1.80;;
76610;SDS011;65503;48.534;9.062;2023-03-20T01:41:42;4.57;;;1.88;;
76610;SDS011;65503;48.534;9.062;2023-03-20T01:44:21;3.97;;;1.90;;
76610;SDS011;65503;48.534;9.062;2023-03-20T01:46:51;3.42;;;1.90;;
76610;SDS011;65503;48.534;9.062;2023-03-20T01:51:48;4.05;;;2.00;;
76610;SDS011;65503;48.534;9.062;2023-03-20T01:54:17;5.30;;;2.00;;
76610;SDS011;65503;48.534;9.062;2023-03-20T01:59:36;3.25;;;1.70;;
76610;SDS011;65503;48.534;9.062;2023-03-20T02:02:09;3.67;;;1.73;;
76610;SDS011;65503;48.534;9.062;2023-03-20T02:04:42;6.43;;;2.22;;
76610;SDS011;65503;48.534;9.062;2023-03-20T02:07:13;4.57;;;1.75;;
76610;SDS011;65503;48.534;9.062;2023-03-20T02:09:42;4.10;;;2.13;;
76610;SDS011;65503;48.534;9.062;2023-03-20T02:12:09;6.32;;;2.25;;
76610;SDS011;65503;48.534;9.062;2023-03-20T02:14:36;4.25;;;2.10;;
76610;SDS011;65503;48.534;9.062;2023-03-20T02:17:04;4.55;;;2.10;;
76610;SDS011;65503;48.534;9.062;2023-03-20T02:19:42;3.53;;;1.83;;
76610;SDS011;65503;48.534;9.062;2023-03-20T02:22:21;3.70;;;1.98;;
76610;SDS011;65503;48.534;9.062;2023-03-20T02:27:32;4.18;;;1.50;;
76610;SDS011;65503;48.534;9.062;2023-03-20T02:30:22;3.45;;;1.67;;
76610;SDS011;65503;48.534;9.062;2023-03-20T02:36:03;3.28;;;1.88;;
76610;SDS011;65503;48.534;9.062;2023-03-20T02:38:52;2.83;;;1.30;;
76610;SDS011;65503;48.534;9.062;2023-03-20T02:41:27;3.05;;;1.38;;
76610;SDS011;65503;48.534;9.062;2023-03-20T02:55:23;2.17;;;1.20;;
76610;SDS011;65503;48.534;9.062;2023-03-20T02:58:13;1.77;;;1.08;;
76610;SDS011;65503;48.534;9.062;2023-03-20T03:00:59;2.80;;;1.48;;
76610;SDS011;65503;48.534;9.062;2023-03-20T03:03:36;3.42;;;1.50;;
76610;SDS011;65503;48.534;9.062;2023-03-20T03:06:09;2.03;;;1.30;;
76610;SDS011;65503;48.534;9.062;2023-03-20T03:08:38;3.05;;;1.48;;
76610;SDS011;65503;48.534;9.062;2023-03-20T03:11:09;3.78;;;1.25;;
76610;SDS011;65503;48.534;9.062;2023-03-20T03:13:37;2.45;;;1.30;;
76610;SDS011;65503;48.534;9.062;2023-03-20T03:16:09;3.33;;;1.50;;
76610;SDS011;65503;48.534;9.062;2023-03-20T03:18:40;6.70;;;1.70;;
76610;SDS011;65503;48.534;9.062;2023-03-20T03:21:09;2.88;;;1.50;;
76610;SDS011;65503;48.534;9.062;2023-03-20T03:23:39;2.72;;;1.38;;
76610;SDS011;65503;48.534;9.062;2023-03-20T03:26:12;2.10;;;1.23;;
76610;SDS011;65503;48.534;9.062;2023-03-20T03:28:45;4.25;;;1.70;;
76610;SDS011;65503;48.534;9.062;2023-03-20T03:31:16;2.53;;;1.40;;
76610;SDS011;65503;48.534;9.062;2023-03-20T03:33:45;2.75;;;1.30;;
76610;SDS011;65503;48.534;9.062;2023-03-20T03:36:29;2.92;;;1.20;;
76610;SDS011;65503;48.534;9.062;2023-03-20T03:39:00;3.05;;;1.17;;
76610;SDS011;65503;48.534;9.062;2023-03-20T03:41:45;2.97;;;1.58;;
76610;SDS011;65503;48.534;9.062;2023-03-20T03:44:27;3.72;;;1.40;;
76610;SDS011;65503;48.534;9.062;2023-03-20T03:49:48;2.72;;;1.42;;
76610;SDS011;65503;48.534;9.062;2023-03-20T03:52:20;3.20;;;1.40;;
76610;SDS011;65503;48.534;9.062;2023-03-20T03:57:30;2.53;;;1.30;;
76610;SDS011;65503;48.534;9.062;2023-03-20T04:00:16;2.90;;;1.40;;
76610;SDS011;65503;48.534;9.062;2023-03-20T04:02:47;2.03;;;1.20;;
76610;SDS011;65503;48.534;9.062;2023-03-20T04:05:17;2.13;;;1.35;;
76610;SDS011;65503;48.534;9.062;2023-03-20T04:07:46;2.67;;;1.35;;
76610;SDS011;65503;48.534;9.062;2023-03-20T04:10:13;2.95;;;1.33;;
76610;SDS011;65503;48.534;9.062;2023-03-20T04:12:41;2.10;;;1.30;;
76610;SDS011;65503;48.534;9.062;2023-03-20T04:15:13;2.80;;;1.58;;
76610;SDS011;65503;48.534;9.062;2023-03-20T04:17:41;2.97;;;1.60;;
76610;SDS011;65503;48.534;9.062;2023-03-20T04:20:08;2.38;;;1.25;;
76610;SDS011;65503;48.534;9.062;2023-03-20T04:22:36;2.78;;;1.52;;
76610;SDS011;65503;48.534;9.062;2023-03-20T04:25:03;2.95;;;1.35;;
76610;SDS011;65503;48.534;9.062;2023-03-20T04:27:31;3.13;;;1.58;;
76610;SDS011;65503;48.534;9.062;2023-03-20T04:29:57;5.85;;;1.58;;
76610;SDS011;65503;48.534;9.062;2023-03-20T04:32:24;2.75;;;1.20;;
76610;SDS011;65503;48.534;9.062;2023-03-20T04:34:51;1.73;;;1.13;;
76610;SDS011;65503;48.534;9.062;2023-03-20T04:37:17;2.15;;;1.30;;
76610;SDS011;65503;48.534;9.062;2023-03-20T04:39:44;2.53;;;1.25;;
76610;SDS011;65503;48.534;9.062;2023-03-20T04:42:11;3.30;;;1.40;;
76610;SDS011;65503;48.534;9.062;2023-03-20T04:44:38;1.25;;;0.98;;
76610;SDS011;65503;48.534;9.062;2023-03-20T04:47:04;3.00;;;1.25;;
76610;SDS011;65503;48.534;9.062;2023-03-20T04:49:31;2.92;;;1.20;;
76610;SDS011;65503;48.534;9.062;2023-03-20T04:51:58;1.88;;;1.30;;
76610;SDS011;65503;48.534;9.062;2023-03-20T04:54:25;2.60;;;1.40;;
76610;SDS011;65503;48.534;9.062;2023-03-20T04:56:51;2.08;;;1.30;;
76610;SDS011;65503;48.534;9.062;2023-03-20T04:59:18;4.20;;;1.60;;
76610;SDS011;65503;48.534;9.062;2023-03-20T05:01:44;3.47;;;1.60;;
76610;SDS011;65503;48.534;9.062;2023-03-20T05:04:11;3.22;;;1.50;;
76610;SDS011;65503;48.534;9.062;2023-03-20T05:06:37;2.72;;;1.50;;
76610;SDS011;65503;48.534;9.062;2023-03-20T05:09:04;2.90;;;1.50;;
76610;SDS011;65503;48.534;9.062;2023-03-20T05:11:31;2.92;;;1.38;;
76610;SDS011;65503;48.534;9.062;2023-03-20T05:13:57;2.97;;;1.50;;
76610;SDS011;65503;48.534;9.062;2023-03-20T05:16:24;3.83;;;1.67;;
76610;SDS011;65503;48.534;9.062;2023-03-20T05:18:50;4.78;;;2.30;;
76610;SDS011;65503;48.534;9.062;2023-03-20T05:21:17;2.50;;;1.40;;
76610;SDS011;65503;48.534;9.062;2023-03-20T05:23:43;2.67;;;1.50;;
76610;SDS011;65503;48.534;9.062;2023-03-20T05:26:10;2.75;;;1.20;;
76610;SDS011;65503;48.534;9.062;2023-03-20T05:28:36;2.78;;;1.65;;
76610;SDS011;65503;48.534;9.062;2023-03-20T05:31:03;2.22;;;1.38;;
76610;SDS011;65503;48.534;9.062;2023-03-20T05:33:29;2.45;;;1.30;;
76610;SDS011;65503;48.534;9.062;2023-03-20T05:35:56;2.25;;;1.23;;
76610;SDS011;65503;48.534;9.062;2023-03-20T05:38:22;4.40;;;1.40;;
76610;SDS011;65503;48.534;9.062;2023-03-20T05:41:00;2.33;;;1.30;;
76610;SDS011;65503;48.534;9.062;2023-03-20T05:43:27;2.38;;;1.50;;
76610;SDS011;65503;48.534;9.062;2023-03-20T05:45:54;2.90;;;1.50;;
76610;SDS011;65503;48.534;9.062;2023-03-20T05:48:21;2.17;;;1.27;;
76610;SDS011;65503;48.534;9.062;2023-03-20T05:50:48;2.85;;;1.50;;
76610;SDS011;65503;48.534;9.062;2023-03-20T05:53:15;2.70;;;1.50;;
76610;SDS011;65503;48.534;9.062;2023-03-20T05:55:42;3.13;;;1.50;;
76610;SDS011;65503;48.534;9.062;2023-03-20T05:58:10;4.38;;;1.63;;
76610;SDS011;65503;48.534;9.062;2023-03-20T06:00:37;3.08;;;1.45;;
76610;SDS011;65503;48.534;9.062;2023-03-20T06:03:04;2.80;;;1.50;;
76610;SDS011;65503;48.534;9.062;2023-03-20T06:05:33;3.10;;;1.40;;
76610;SDS011;65503;48.534;9.062;2023-03-20T06:08:01;2.05;;;1.30;;
76610;SDS011;65503;48.534;9.062;2023-03-20T06:10:28;2.78;;;1.50;;
76610;SDS011;65503;48.534;9.062;2023-03-20T06:12:55;2.83;;;1.52;;
76610;SDS011;65503;48.534;9.062;2023-03-20T06:15:23;5.82;;;1.88;;
76610;SDS011;65503;48.534;9.062;2023-03-20T06:17:49;8.70;;;1.73;;
76610;SDS011;65503;48.534;9.062;2023-03-20T06:20:16;4.35;;;1.75;;
76610;SDS011;65503;48.534;9.062;2023-03-20T06:22:42;3.75;;;1.60;;
76610;SDS011;65503;48.534;9.062;2023-03-20T06:25:10;3.50;;;1.55;;
76610;SDS011;65503;48.534;9.062;2023-03-20T06:27:37;3.33;;;1.60;;
76610;SDS011;65503;48.534;9.062;2023-03-20T06:30:04;3.40;;;1.42;;
76610;SDS011;65503;48.534;9.062;2023-03-20T06:32:31;3.90;;;1.60;;
76610;SDS011;65503;48.534;9.062;2023-03-20T06:34:58;4.15;;;1.70;;
76610;SDS011;65503;48.534;9.062;2023-03-20T06:37:24;3.28;;;1.65;;
76610;SDS011;65503;48.534;9.062;2023-03-20T06:39:51;2.47;;;1.60;;
76610;SDS011;65503;48.534;9.062;2023-03-20T06:42:17;2.45;;;1.50;;
76610;SDS011;65503;48.534;9.062;2023-03-20T06:44:44;2.70;;;1.55;;
76610;SDS011;65503;48.534;9.062;2023-03-20T06:47:10;5.97;;;1.63;;
76610;SDS011;65503;48.534;9.062;2023-03-20T06:49:37;4.70;;;1.50;;
76610;SDS011;65503;48.534;9.062;2023-03-20T06:52:04;4.60;;;1.60;;
76610;SDS011;65503;48.534;9.062;2023-03-20T06:56:58;2.97;;;1.40;;
76610;SDS011;65503;48.534;9.062;2023-03-20T06:59:24;2.53;;;1.30;;
76610;SDS011;65503;48.534;9.062;2023-03-20T07:01:52;3.20;;;1.60;;
76610;SDS011;65503;48.534;9.062;2023-03-20T07:04:19;2.42;;;1.35;;
76610;SDS011;65503;48.534;9.062;2023-03-20T07:06:45;3.90;;;1.60;;
76610;SDS011;65503;48.534;9.062;2023-03-20T07:09:12;5.65;;;1.67;;
76610;SDS011;65503;48.534;9.062;2023-03-20T07:11:38;2.53;;;1.63;;
76610;SDS011;65503;48.534;9.062;2023-03-20T07:14:05;3.75;;;1.27;;
76610;SDS011;65503;48.534;9.062;2023-03-20T07:16:32;2.75;;;1.00;;
76610;SDS011;65503;48.534;9.062;2023-03-20T07:18:58;1.95;;;1.25;;
76610;SDS011;65503;48.534;9.062;2023-03-20T07:21:25;3.90;;;1.52;;
76610;SDS011;65503;48.534;9.062;2023-03-20T07:23:51;2.20;;;1.25;;
76610;SDS011;65503;48.534;9.062;2023-03-20T07:26:20;2.38;;;1.20;;
76610;SDS011;65503;48.534;9.062;2023-03-20T07:28:46;2.55;;;1.30;;
76610;SDS011;65503;48.534;9.062;2023-03-20T07:31:19;2.72;;;1.40;;
76610;SDS011;65503;48.534;9.062;2023-03-20T07:33:51;1.73;;;1.20;;
76610;SDS011;65503;48.534;9.062;2023-03-20T07:36:17;2.88;;;1.50;;
76610;SDS011;65503;48.534;9.062;2023-03-20T07:38:44;3.25;;;1.40;;
76610;SDS011;65503;48.534;9.062;2023-03-20T07:41:10;3.38;;;1.63;;
76610;SDS011;65503;48.534;9.062;2023-03-20T07:43:37;5.03;;;1.50;;
76610;SDS011;65503;48.534;9.062;2023-03-20T07:46:04;2.85;;;1.58;;
76610;SDS011;65503;48.534;9.062;2023-03-20T07:48:33;2.53;;;1.48;;
76610;SDS011;65503;48.534;9.062;2023-03-20T07:51:00;3.13;;;1.65;;
76610;SDS011;65503;48.534;9.062;2023-03-20T07:53:27;2.85;;;1.40;;
76610;SDS011;65503;48.534;9.062;2023-03-20T07:55:53;3.13;;;1.70;;
76610;SDS011;65503;48.534;9.062;2023-03-20T07:58:20;3.28;;;1.75;;
76610;SDS011;65503;48.534;9.062;2023-03-20T08:00:46;4.45;;;1.83;;
76610;SDS011;65503;48.534;9.062;2023-03-20T08:03:13;3.55;;;1.60;;
76610;SDS011;65503;48.534;9.062;2023-03-20T08:05:39;4.03;;;1.80;;
76610;SDS011;65503;48.534;9.062;2023-03-20T08:08:06;4.60;;;1.67;;
76610;SDS011;65503;48.534;9.062;2023-03-20T08:10:33;2.58;;;1.30;;
76610;SDS011;65503;48.534;9.062;2023-03-20T08:12:59;2.00;;;1.40;;
76610;SDS011;65503;48.534;9.062;2023-03-20T08:15:26;4.53;;;1.80;;
76610;SDS011;65503;48.534;9.062;2023-03-20T08:17:52;5.00;;;1.70;;
76610;SDS011;65503;48.534;9.062;2023-03-20T08:20:19;2.88;;;1.67;;
76610;SDS011;65503;48.534;9.062;2023-03-20T08:22:46;4.07;;;1.60;;
76610;SDS011;65503;48.534;9.062;2023-03-20T08:25:14;3.72;;;1.55;;
76610;SDS011;65503;48.534;9.062;2023-03-20T08:27:41;4.20;;;1.73;;
76610;SDS011;65503;48.534;9.062;2023-03-20T08:30:08;7.63;;;1.50;;
76610;SDS011;65503;48.534;9.062;2023-03-20T08:32:35;2.53;;;1.60;;
76610;SDS011;65503;48.534;9.062;2023-03-20T08:35:02;2.85;;;1.42;;
76610;SDS011;65503;48.534;9.062;2023-03-20T08:37:28;3.35;;;1.60;;
76610;SDS011;65503;48.534;9.062;2023-03-20T08:39:55;3.40;;;1.75;;
76610;SDS011;65503;48.534;9.062;2023-03-20T08:42:21;2.65;;;1.40;;
76610;SDS011;65503;48.534;9.062;2023-03-20T08:44:48;2.90;;;1.50;;
76610;SDS011;65503;48.534;9.062;2023-03-20T08:47:14;6.32;;;1.80;;
76610;SDS011;65503;48.534;9.062;2023-03-20T08:49:41;4.03;;;1.60;;
76610;SDS011;65503;48.534;9.062;2023-03-20T08:52:08;4.43;;;1.90;;
76610;SDS011;65503;48.534;9.062;2023-03-20T08:54:35;3.55;;;1.60;;
76610;SDS011;65503;48.534;9.062;2023-03-20T08:57:02;3.72;;;1.50;;
76610;SDS011;65503;48.534;9.062;2023-03-20T08:59:28;4.32;;;1.40;;
76610;SDS011;65503;48.534;9.062;2023-03-20T09:01:55;2.88;;;1.50;;
76610;SDS011;65503;48.534;9.062;2023-03-20T09:04:21;3.47;;;1.48;;
76610;SDS011;65503;48.534;9.062;2023-03-20T09:06:48;2.92;;;1.30;;
76610;SDS011;65503;48.534;9.062;2023-03-20T09:09:15;2.05;;;1.45;;
76610;SDS011;65503;48.534;9.062;2023-03-20T09:11:43;4.05;;;1.70;;
76610;SDS011;65503;48.534;9.062;2023-03-20T09:14:10;2.58;;;1.25;;
76610;SDS011;65503;48.534;9.062;2023-03-20T09:16:37;5.53;;;1.45;;
76610;SDS011;65503;48.534;9.062;2023-03-20T09:19:04;2.45;;;1.30;;
76610;SDS011;65503;48.534;9.062;2023-03-20T09:21:31;3.33;;;1.48;;
76610;SDS011;65503;48.534;9.062;2023-03-20T09:23:57;3.55;;;1.30;;
76610;SDS011;65503;48.534;9.062;2023-03-20T09:26:24;3.28;;;1.35;;
76610;SDS011;65503;48.534;9.062;2023-03-20T09:28:50;2.90;;;1.20;;
76610;SDS011;65503;48.534;9.062;2023-03-20T09:31:17;4.13;;;1.40;;
76610;SDS011;65503;48.534;9.062;2023-03-20T09:33:43;2.25;;;1.25;;
76610;SDS011;65503;48.534;9.062;2023-03-20T09:36:10;2.33;;;1.20;;
76610;SDS011;65503;48.534;9.062;2023-03-20T09:38:37;3.00;;;1.30;;
76610;SDS011;65503;48.534;9.062;2023-03-20T09:41:03;3.85;;;1.77;;
76610;SDS011;65503;48.534;9.062;2023-03-20T09:46:29;1.98;;;1.20;;
76610;SDS011;65503;48.534;9.062;2023-03-20T09:51:56;2.97;;;1.40;;
76610;SDS011;65503;48.534;9.062;2023-03-20T09:57:20;2.00;;;1.13;;
76610;SDS011;65503;48.534;9.062;2023-03-20T09:59:58;2.67;;;1.30;;
76610;SDS011;65503;48.534;9.062;2023-03-20T10:02:44;1.65;;;1.15;;
76610;SDS011;65503;48.534;9.062;2023-03-20T10:07:50;2.17;;;1.20;;
76610;SDS011;65503;48.534;9.062;2023-03-20T10:10:21;1.63;;;1.17;;
76610;SDS011;65503;48.534;9.062;2023-03-20T10:27:49;2.70;;;1.00;;
76610;SDS011;65503;48.534;9.062;2023-03-20T10:41:24;2.53;;;1.33;;
76610;SDS011;65503;48.534;9.062;2023-03-20T10:43:55;1.95;;;1.10;;
76610;SDS011;65503;48.534;9.062;2023-03-20T10:46:29;2.22;;;1.00;;
76610;SDS011;65503;48.534;9.062;2023-03-20T10:49:02;1.95;;;0.90;;
76610;SDS011;65503;48.534;9.062;2023-03-20T10:56:53;1.98;;;1.10;;
76610;SDS011;65503;48.534;9.062;2023-03-20T10:59:36;2.60;;;1.00;;
76610;SDS011;65503;48.534;9.062;2023-03-20T11:02:13;2.67;;;1.10;;
76610;SDS011;65503;48.534;9.062;2023-03-20T11:04:40;2.88;;;1.20;;
76610;SDS011;65503;48.534;9.062;2023-03-20T11:09:33;1.98;;;1.10;;
76610;SDS011;65503;48.534;9.062;2023-03-20T11:12:00;2.33;;;1.00;;
76610;SDS011;65503;48.534;9.062;2023-03-20T11:14:32;2.30;;;1.10;;
76610;SDS011;65503;48.534;9.062;2023-03-20T11:17:01;1.83;;;0.90;;
76610;SDS011;65503;48.534;9.062;2023-03-20T11:19:33;1.10;;;0.90;;
76610;SDS011;65503;48.534;9.062;2023-03-20T11:24:48;1.60;;;0.90;;
76610;SDS011;65503;48.534;9.062;2023-03-20T11:27:18;1.98;;;1.00;;
76610;SDS011;65503;48.534;9.062;2023-03-20T11:29:50;1.40;;;0.93;;
76610;SDS011;65503;48.534;9.062;2023-03-20T11:32:28;1.88;;;1.20;;
76610;SDS011;65503;48.534;9.062;2023-03-20T11:35:10;2.38;;;1.02;;
76610;SDS011;65503;48.534;9.062;2023-03-20T11:37:46;1.70;;;1.00;;
76610;SDS011;65503;48.534;9.062;2023-03-20T11:40:16;1.35;;;0.93;;
76610;SDS011;65503;48.534;9.062;2023-03-20T11:45:29;2.15;;;1.17;;
76610;SDS011;65503;48.534;9.062;2023-03-20T11:48:00;2.08;;;1.02;;
76610;SDS011;65503;48.534;9.062;2023-03-20T11:53:01;1.55;;;1.00;;
76610;SDS011;65503;48.534;9.062;2023-03-20T11:55:29;2.30;;;0.90;;
76610;SDS011;65503;48.534;9.062;2023-03-20T11:57:59;3.60;;;1.20;;
76610;SDS011;65503;48.534;9.062;2023-03-20T12:00:29;2.55;;;1.00;;
76610;SDS011;65503;48.534;9.062;2023-03-20T12:03:02;1.95;;;1.00;;
76610;SDS011;65503;48.534;9.062;2023-03-20T12:05:33;4.00;;;1.17;;
76610;SDS011;65503;48.534;9.062;2023-03-20T12:08:03;3.65;;;1.10;;
76610;SDS011;65503;48.534;9.062;2023-03-20T12:10:35;2.75;;;1.25;;
76610;SDS011;65503;48.534;9.062;2023-03-20T12:13:09;2.75;;;1.20;;
76610;SDS011;65503;48.534;9.062;2023-03-20T12:15:45;2.35;;;1.10;;
76610;SDS011;65503;48.534;9.062;2023-03-20T12:23:46;3.28;;;1.30;;
76610;SDS011;65503;48.534;9.062;2023-03-20T12:26:19;2.08;;;1.20;;
76610;SDS011;65503;48.534;9.062;2023-03-20T12:28:51;2.65;;;1.15;;
76610;SDS011;65503;48.534;9.062;2023-03-20T12:34:11;2.58;;;1.10;;
76610;SDS011;65503;48.534;9.062;2023-03-20T12:36:44;2.47;;;1.30;;
76610;SDS011;65503;48.534;9.062;2023-03-20T12:39:14;2.03;;;1.10;;
76610;SDS011;65503;48.534;9.062;2023-03-20T12:44:40;1.80;;;1.13;;
76610;SDS011;65503;48.534;9.062;2023-03-20T12:55:56;2.30;;;1.30;;
76610;SDS011;65503;48.534;9.062;2023-03-20T12:58:46;3.72;;;1.27;;
76610;SDS011;65503;48.534;9.062;2023-03-20T13:04:05;3.13;;;1.40;;
76610;SDS011;65503;48.534;9.062;2023-03-20T13:06:55;1.55;;;1.00;;
76610;SDS011;65503;48.534;9.062;2023-03-20T13:12:19;4.03;;;1.30;;
76610;SDS011;65503;48.534;9.062;2023-03-20T13:17:25;2.97;;;1.30;;
76610;SDS011;65503;48.534;9.062;2023-03-20T13:22:47;2.85;;;1.38;;
76610;SDS011;65503;48.534;9.062;2023-03-20T13:28:24;1.95;;;1.10;;
76610;SDS011;65503;48.534;9.062;2023-03-20T13:31:13;4.10;;;1.60;;
76610;SDS011;65503;48.534;9.062;2023-03-20T13:36:33;1.83;;;1.15;;
76610;SDS011;65503;48.534;9.062;2023-03-20T13:41:51;2.05;;;1.17;;
76610;SDS011;65503;48.534;9.062;2023-03-20T13:44:20;2.05;;;1.20;;
76610;SDS011;65503;48.534;9.062;2023-03-20T13:46:49;4.13;;;1.13;;
76610;SDS011;65503;48.534;9.062;2023-03-20T13:52:05;2.38;;;1.30;;
76610;SDS011;65503;48.534;9.062;2023-03-20T13:54:48;2.35;;;1.10;;
76610;SDS011;65503;48.534;9.062;2023-03-20T13:57:34;3.03;;;1.15;;
76610;SDS011;65503;48.534;9.062;2023-03-20T14:03:16;2.63;;;1.23;;
76610;SDS011;65503;48.534;9.062;2023-03-20T14:05:49;2.58;;;1.15;;
76610;SDS011;65503;48.534;9.062;2023-03-20T14:08:19;2.20;;;1.00;;
76610;SDS011;65503;48.534;9.062;2023-03-20T14:10:53;2.30;;;1.05;;
76610;SDS011;65503;48.534;9.062;2023-03-20T14:13:29;2.58;;;1.00;;
76610;SDS011;65503;48.534;9.062;2023-03-20T14:15:57;1.70;;;0.90;;
76610;SDS011;65503;48.534;9.062;2023-03-20T14:18:28;1.83;;;1.00;;
76610;SDS011;65503;48.534;9.062;2023-03-20T14:20:59;2.17;;;0.95;;
76610;SDS011;65503;48.534;9.062;2023-03-20T14:26:08;2.70;;;1.08;;
76610;SDS011;65503;48.534;9.062;2023-03-20T14:28:43;2.33;;;1.10;;
76610;SDS011;65503;48.534;9.062;2023-03-20T14:33:58;2.33;;;1.10;;
76610;SDS011;65503;48.534;9.062;2023-03-20T14:39:33;2.70;;;1.10;;
76610;SDS011;65503;48.534;9.062;2023-03-20T14:52:28;1.85;;;1.00;;
76610;SDS011;65503;48.534;9.062;2023-03-20T14:57:52;1.60;;;0.93;;
76610;SDS011;65503;48.534;9.062;2023-03-20T15:02:57;2.38;;;1.05;;
76610;SDS011;65503;48.534;9.062;2023-03-20T15:05:29;1.88;;;1.10;;
76610;SDS011;65503;48.534;9.062;2023-03-20T15:08:01;4.03;;;1.02;;
76610;SDS011;65503;48.534;9.062;2023-03-20T15:10:33;1.90;;;0.93;;
76610;SDS011;65503;48.534;9.062;2023-03-20T15:13:03;1.20;;;0.90;;
76610;SDS011;65503;48.534;9.062;2023-03-20T15:15:32;1.60;;;0.90;;
76610;SDS011;65503;48.534;9.062;2023-03-20T15:18:35;2.83;;;1.25;;
76610;SDS011;65503;48.534;9.062;2023-03-20T15:20:55;2.40;;;1.20;;
76610;SDS011;65503;48.534;9.062;2023-03-20T15:23:23;4.50;;;1.20;;
76610;SDS011;65503;48.534;9.062;2023-03-20T15:25:51;2.75;;;1.20;;
76610;SDS011;65503;48.534;9.062;2023-03-20T15:28:19;4.03;;;1.40;;
76610;SDS011;65503;48.534;9.062;2023-03-20T15:30:50;3.42;;;0.90;;
76610;SDS011;65503;48.534;9.062;2023-03-20T15:33:23;3.30;;;1.17;;
76610;SDS011;65503;48.534;9.062;2023-03-20T15:35:51;2.63;;;1.20;;
76610;SDS011;65503;48.534;9.062;2023-03-20T15:38:17;2.58;;;1.15;;
76610;SDS011;65503;48.534;9.062;2023-03-20T15:40:45;2.10;;;1.20;;
76610;SDS011;65503;48.534;9.062;2023-03-20T15:43:18;1.55;;;1.00;;
76610;SDS011;65503;48.534;9.062;2023-03-20T15:45:51;2.78;;;1.30;;
76610;SDS011;65503;48.534;9.062;2023-03-20T15:48:45;2.03;;;1.05;;
76610;SDS011;65503;48.534;9.062;2023-03-20T15:51:16;3.30;;;1.15;;
76610;SDS011;65503;48.534;9.062;2023-03-20T15:53:45;1.88;;;1.23;;
76610;SDS011;65503;48.534;9.062;2023-03-20T15:56:14;1.25;;;0.90;;
76610;SDS011;65503;48.534;9.062;2023-03-20T15:58:45;2.47;;;1.20;;
76610;SDS011;65503;48.534;9.062;2023-03-20T16:01:19;1.88;;;0.93;;
76610;SDS011;65503;48.534;9.062;2023-03-20T16:03:49;1.77;;;1.05;;
76610;SDS011;65503;48.534;9.062;2023-03-20T16:06:20;1.10;;;0.90;;
76610;SDS011;65503;48.534;9.062;2023-03-20T16:08:56;2.72;;;1.20;;
76610;SDS011;65503;48.534;9.062;2023-03-20T16:11:40;3.58;;;1.40;;
76610;SDS011;65503;48.534;9.062;2023-03-20T16:14:11;2.10;;;1.15;;
76610;SDS011;65503;48.534;9.062;2023-03-20T16:16:40;1.38;;;1.10;;
76610;SDS011;65503;48.534;9.062;2023-03-20T16:19:09;4.00;;;1.40;;
76610;SDS011;65503;48.534;9.062;2023-03-20T16:21:38;2.40;;;1.20;;
76610;SDS011;65503;48.534;9.062;2023-03-20T16:24:09;3.17;;;1.60;;
76610;SDS011;65503;48.534;9.062;2023-03-20T16:26:44;5.13;;;1.52;;
76610;SDS011;65503;48.534;9.062;2023-03-20T16:29:15;1.88;;;1.17;;
76610;SDS011;65503;48.534;9.062;2023-03-20T16:31:53;2.67;;;1.30;;
76610;SDS011;65503;48.534;9.062;2023-03-20T16:34:30;1.17;;;0.95;;
76610;SDS011;65503;48.534;9.062;2023-03-20T16:37:00;2.55;;;1.27;;
76610;SDS011;65503;48.534;9.062;2023-03-20T16:39:32;3.72;;;1.30;;
76610;SDS011;65503;48.534;9.062;2023-03-20T16:44:54;5.30;;;1.77;;
76610;SDS011;65503;48.534;9.062;2023-03-20T16:47:34;10.90;;;1.95;;
76610;SDS011;65503;48.534;9.062;2023-03-20T16:52:44;2.90;;;1.33;;
76610;SDS011;65503;48.534;9.062;2023-03-20T16:55:15;2.45;;;1.27;;
76610;SDS011;65503;48.534;9.062;2023-03-20T16:57:47;3.92;;;1.38;;
76610;SDS011;65503;48.534;9.062;2023-03-20T17:00:18;2.00;;;1.20;;
76610;SDS011;65503;48.534;9.062;2023-03-20T17:02:51;6.65;;;1.50;;
76610;SDS011;65503;48.534;9.062;2023-03-20T17:05:27;2.67;;;1.40;;
76610;SDS011;65503;48.534;9.062;2023-03-20T17:08:03;3.95;;;1.50;;
76610;SDS011;65503;48.534;9.062;2023-03-20T17:10:35;2.55;;;1.40;;
76610;SDS011;65503;48.534;9.062;2023-03-20T17:15:31;3.92;;;1.45;;
76610;SDS011;65503;48.534;9.062;2023-03-20T17:17:58;3.15;;;1.40;;
76610;SDS011;65503;48.534;9.062;2023-03-20T17:20:26;3.53;;;1.60;;
76610;SDS011;65503;48.534;9.062;2023-03-20T17:22:53;3.58;;;1.20;;
76610;SDS011;65503;48.534;9.062;2023-03-20T17:25:20;3.10;;;1.20;;
76610;SDS011;65503;48.534;9.062;2023-03-20T17:27:47;2.97;;;1.27;;
76610;SDS011;65503;48.534;9.062;2023-03-20T17:30:20;2.72;;;1.27;;
76610;SDS011;65503;48.534;9.062;2023-03-20T17:32:49;2.30;;;1.33;;
76610;SDS011;65503;48.534;9.062;2023-03-20T17:35:16;3.85;;;1.48;;
76610;SDS011;65503;48.534;9.062;2023-03-20T17:37:43;2.80;;;1.50;;
76610;SDS011;65503;48.534;9.062;2023-03-20T17:40:12;4.03;;;1.40;;
76610;SDS011;65503;48.534;9.062;2023-03-20T17:42:43;2.60;;;1.25;;
76610;SDS011;65503;48.534;9.062;2023-03-20T17:45:11;2.45;;;1.13;;
76610;SDS011;65503;48.534;9.062;2023-03-20T17:47:38;2.03;;;1.17;;
76610;SDS011;65503;48.534;9.062;2023-03-20T17:50:08;2.17;;;1.30;;